Isola Bianca — ICLD — position and weather

sailwx.info

Track history (hours):
 
Tides and Currents Weather Stations Pressure Air Temp Water Temp Dewpoint Dewpoint Depression Visibility Wind Speed Wind Dir Waves Ship Positions

Isola Bianca

Last reported at 2017-Jun-28 00:19 UTC. Time now 2017-Jun-28 12:08 UTC.
Position N 04°28' W 002°05'.

Length 183 m; draft 12.2 m.

Type: Ship. MMSI: 247245200.

Date/timePositionNaut miles runAvg speedWind from/ knotsBaromVisibWave heightAir tempDewpointWater temp
2017-Jun-28 00:19N 04°28' W 002°05'813.8
2017-Jun-27 23:44N 04°24' W 002°12'514.3
2017-Jun-27 23:24N 04°22' W 002°16'614.8
2017-Jun-27 23:00N 04°20' W 002°22'815.0
2017-Jun-27 22:30N 04°18' W 002°29'815.3
2017-Jun-27 22:00N 04°17' W 002°37'815.3
2017-Jun-27 21:30N 04°17' W 002°45'815.5
2017-Jun-27 20:59N 04°17' W 002°53'  
2017-Jun-22 07:38N 23°52' W 016°39'313.5
2017-Jun-22 07:26N 23°55' W 016°38'613.5
2017-Jun-22 06:57N 24°01' W 016°35'713.6
2017-Jun-22 06:29N 24°07' W 016°33'613.5
2017-Jun-22 06:00N 24°13' W 016°31'713.7
2017-Jun-22 05:30N 24°20' W 016°28'1113.6
2017-Jun-22 04:42N 24°30' W 016°25'313.5
2017-Jun-22 04:30N 24°33' W 016°24'1413.5
2017-Jun-22 03:28N 24°46' W 016°18'913.4
2017-Jun-22 02:47N 24°54' W 016°15'413.4
2017-Jun-22 02:30N 24°58' W 016°14'713.2
2017-Jun-22 01:58N 25°05' W 016°11'1113.7
2017-Jun-22 01:10N 25°15' W 016°07'1413.4
2017-Jun-22 00:10N 25°28' W 016°03'313.3
2017-Jun-21 23:58N 25°30' W 016°02'713.2
2017-Jun-21 23:27N 25°37' W 015°59'613.2
2017-Jun-21 22:59N 25°43' W 015°57'913.3
2017-Jun-21 22:19N 25°51' W 015°54'713.4
2017-Jun-21 21:47N 25°58' W 015°51'713.3
2017-Jun-21 21:14N 26°05' W 015°49'313.2
2017-Jun-21 21:00N 26°07' W 015°47'813.1
2017-Jun-21 20:26N 26°14' W 015°45'613.3
2017-Jun-21 19:59N 26°20' W 015°43'613.2
2017-Jun-21 19:30N 26°26' W 015°40'4513.2
2017-Jun-21 16:07N 27°08' W 015°24'1113.5
2017-Jun-21 15:17N 27°19' W 015°20'413.6
2017-Jun-21 15:00N 27°23' W 015°19'1413.9
2017-Jun-21 13:59N 27°36' W 015°14'713.8
2017-Jun-21 13:30N 27°43' W 015°11'713.9
2017-Jun-21 13:00N 27°49' W 015°08'714.0
2017-Jun-21 12:30N 27°56' W 015°06'714.0
2017-Jun-21 12:00N 28°02' W 015°03'713.9
2017-Jun-21 11:30N 28°09' W 014°60'713.6
2017-Jun-21 11:00N 28°15' W 014°57'713.3
2017-Jun-21 10:30N 28°21' W 014°55'713.6
2017-Jun-21 10:00N 28°28' W 014°53'713.7
2017-Jun-21 09:30N 28°35' W 014°50'713.4
2017-Jun-21 09:00N 28°41' W 014°49'813.7
2017-Jun-21 08:24N 28°49' W 014°46'813.6
2017-Jun-21 07:48N 28°57' W 014°44'3913.8
2017-Jun-21 04:58N 29°35' W 014°33'913.8
2017-Jun-21 04:17N 29°44' W 014°30'42113.3
2017-Jun-19 20:45N 36°31' W 012°23'313.1
2017-Jun-19 20:30N 36°34' W 012°22'713.2
2017-Jun-19 20:00N 36°40' W 012°20'2313.0
2017-Jun-19 18:15N 37°02' W 012°12'1912.8
2017-Jun-19 16:45N 37°21' W 012°06'1012.8
2017-Jun-19 15:56N 37°31' W 012°03'813.1
2017-Jun-19 15:21N 37°39' W 012°01'813.3
2017-Jun-19 14:45N 37°46' W 011°58'413.4
2017-Jun-19 14:28N 37°50' W 011°57'3413.3
2017-Jun-19 11:56N 38°22' W 011°46'813.2
2017-Jun-19 11:18N 38°31' W 011°43'413.3
2017-Jun-19 10:59N 38°35' W 011°42'1513.2
2017-Jun-19 09:49N 38°50' W 011°37'413.2
2017-Jun-19 09:30N 38°54' W 011°36'2513.4
2017-Jun-19 07:36N 39°18' W 011°27'213.6
2017-Jun-19 07:27N 39°20' W 011°26'613.4
2017-Jun-19 06:59N 39°26' W 011°24'613.7
2017-Jun-19 06:30N 39°32' W 011°22'713.8
2017-Jun-19 06:01N 39°39' W 011°20'713.8
2017-Jun-19 05:31N 39°46' W 011°18'713.7
2017-Jun-19 05:00N 39°53' W 011°16'713.7
2017-Jun-19 04:30N 39°59' W 011°14'714.0
2017-Jun-19 04:01N 40°06' W 011°11'713.8
2017-Jun-19 03:30N 40°13' W 011°09'713.7
2017-Jun-19 03:00N 40°19' W 011°06'713.7
2017-Jun-19 02:30N 40°26' W 011°04'713.7
2017-Jun-19 02:00N 40°32' W 011°02'713.9
2017-Jun-19 01:30N 40°39' W 010°59'713.6
2017-Jun-19 01:00N 40°46' W 010°57'713.4
2017-Jun-19 00:27N 40°53' W 010°55'613.3
2017-Jun-19 00:00N 40°59' W 010°53'713.1
2017-Jun-18 23:30N 41°05' W 010°51'613.0
2017-Jun-18 23:00N 41°11' W 010°49'612.8
2017-Jun-18 22:31N 41°17' W 010°46'713.1
2017-Jun-18 22:01N 41°24' W 010°44'713.4
2017-Jun-18 21:31N 41°30' W 010°42'713.5
2017-Jun-18 21:01N 41°37' W 010°40'713.1
2017-Jun-18 20:28N 41°44' W 010°37'4413.3
2017-Jun-18 17:10N 42°26' W 010°22'213.4
2017-Jun-18 17:00N 42°28' W 010°21'713.1
2017-Jun-18 16:29N 42°35' W 010°19'912.9
2017-Jun-18 15:47N 42°43' W 010°16'4012.9
2017-Jun-18 12:40N 43°23' W 010°07'  
Track history (hours):
 
Tides and Currents Weather Stations Pressure Air Temp Water Temp Dewpoint Dewpoint Depression Visibility Wind Speed Wind Dir Waves Ship Positions

Isola Bianca

Last reported at 2017-Jun-28 00:19 UTC. Time now 2017-Jun-28 12:08 UTC.
Position N 04°28' W 002°05'.

Length 183 m; draft 12.2 m.

Type: Ship. MMSI: 247245200.

Date/timePositionNaut miles runAvg speedWind from/ knotsBaromVisibWave heightAir tempDewpointWater temp
2017-Jun-28 00:19N 04°28' W 002°05'813.8
2017-Jun-27 23:44N 04°24' W 002°12'514.3
2017-Jun-27 23:24N 04°22' W 002°16'614.8
2017-Jun-27 23:00N 04°20' W 002°22'815.0
2017-Jun-27 22:30N 04°18' W 002°29'815.3
2017-Jun-27 22:00N 04°17' W 002°37'815.3
2017-Jun-27 21:30N 04°17' W 002°45'815.5
2017-Jun-27 20:59N 04°17' W 002°53'  
2017-Jun-22 07:38N 23°52' W 016°39'313.5
2017-Jun-22 07:26N 23°55' W 016°38'613.5
2017-Jun-22 06:57N 24°01' W 016°35'713.6
2017-Jun-22 06:29N 24°07' W 016°33'613.5
2017-Jun-22 06:00N 24°13' W 016°31'713.7
2017-Jun-22 05:30N 24°20' W 016°28'1113.6
2017-Jun-22 04:42N 24°30' W 016°25'313.5
2017-Jun-22 04:30N 24°33' W 016°24'1413.5
2017-Jun-22 03:28N 24°46' W 016°18'913.4
2017-Jun-22 02:47N 24°54' W 016°15'413.4
2017-Jun-22 02:30N 24°58' W 016°14'713.2
2017-Jun-22 01:58N 25°05' W 016°11'1113.7
2017-Jun-22 01:10N 25°15' W 016°07'1413.4
2017-Jun-22 00:10N 25°28' W 016°03'313.3
2017-Jun-21 23:58N 25°30' W 016°02'713.2
2017-Jun-21 23:27N 25°37' W 015°59'613.2
2017-Jun-21 22:59N 25°43' W 015°57'913.3
2017-Jun-21 22:19N 25°51' W 015°54'713.4
2017-Jun-21 21:47N 25°58' W 015°51'713.3
2017-Jun-21 21:14N 26°05' W 015°49'313.2
2017-Jun-21 21:00N 26°07' W 015°47'813.1
2017-Jun-21 20:26N 26°14' W 015°45'613.3
2017-Jun-21 19:59N 26°20' W 015°43'613.2
2017-Jun-21 19:30N 26°26' W 015°40'4513.2
2017-Jun-21 16:07N 27°08' W 015°24'1113.5
2017-Jun-21 15:17N 27°19' W 015°20'413.6
2017-Jun-21 15:00N 27°23' W 015°19'1413.9
2017-Jun-21 13:59N 27°36' W 015°14'713.8
2017-Jun-21 13:30N 27°43' W 015°11'713.9
2017-Jun-21 13:00N 27°49' W 015°08'714.0
2017-Jun-21 12:30N 27°56' W 015°06'714.0
2017-Jun-21 12:00N 28°02' W 015°03'713.9
2017-Jun-21 11:30N 28°09' W 014°60'713.6
2017-Jun-21 11:00N 28°15' W 014°57'713.3
2017-Jun-21 10:30N 28°21' W 014°55'713.6
2017-Jun-21 10:00N 28°28' W 014°53'713.7
2017-Jun-21 09:30N 28°35' W 014°50'713.4
2017-Jun-21 09:00N 28°41' W 014°49'813.7
2017-Jun-21 08:24N 28°49' W 014°46'813.6
2017-Jun-21 07:48N 28°57' W 014°44'3913.8
2017-Jun-21 04:58N 29°35' W 014°33'913.8
2017-Jun-21 04:17N 29°44' W 014°30'42113.3
2017-Jun-19 20:45N 36°31' W 012°23'313.1
2017-Jun-19 20:30N 36°34' W 012°22'713.2
2017-Jun-19 20:00N 36°40' W 012°20'2313.0
2017-Jun-19 18:15N 37°02' W 012°12'1912.8
2017-Jun-19 16:45N 37°21' W 012°06'1012.8
2017-Jun-19 15:56N 37°31' W 012°03'813.1
2017-Jun-19 15:21N 37°39' W 012°01'813.3
2017-Jun-19 14:45N 37°46' W 011°58'413.4
2017-Jun-19 14:28N 37°50' W 011°57'3413.3
2017-Jun-19 11:56N 38°22' W 011°46'813.2
2017-Jun-19 11:18N 38°31' W 011°43'413.3
2017-Jun-19 10:59N 38°35' W 011°42'1513.2
2017-Jun-19 09:49N 38°50' W 011°37'413.2
2017-Jun-19 09:30N 38°54' W 011°36'2513.4
2017-Jun-19 07:36N 39°18' W 011°27'213.6
2017-Jun-19 07:27N 39°20' W 011°26'613.4
2017-Jun-19 06:59N 39°26' W 011°24'613.7
2017-Jun-19 06:30N 39°32' W 011°22'713.8
2017-Jun-19 06:01N 39°39' W 011°20'713.8
2017-Jun-19 05:31N 39°46' W 011°18'713.7
2017-Jun-19 05:00N 39°53' W 011°16'713.7
2017-Jun-19 04:30N 39°59' W 011°14'714.0
2017-Jun-19 04:01N 40°06' W 011°11'713.8
2017-Jun-19 03:30N 40°13' W 011°09'713.7
2017-Jun-19 03:00N 40°19' W 011°06'713.7
2017-Jun-19 02:30N 40°26' W 011°04'713.7
2017-Jun-19 02:00N 40°32' W 011°02'713.9
2017-Jun-19 01:30N 40°39' W 010°59'713.6
2017-Jun-19 01:00N 40°46' W 010°57'713.4
2017-Jun-19 00:27N 40°53' W 010°55'613.3
2017-Jun-19 00:00N 40°59' W 010°53'713.1
2017-Jun-18 23:30N 41°05' W 010°51'613.0
2017-Jun-18 23:00N 41°11' W 010°49'612.8
2017-Jun-18 22:31N 41°17' W 010°46'713.1
2017-Jun-18 22:01N 41°24' W 010°44'713.4
2017-Jun-18 21:31N 41°30' W 010°42'713.5
2017-Jun-18 21:01N 41°37' W 010°40'713.1
2017-Jun-18 20:28N 41°44' W 010°37'4413.3
2017-Jun-18 17:10N 42°26' W 010°22'213.4
2017-Jun-18 17:00N 42°28' W 010°21'713.1
2017-Jun-18 16:29N 42°35' W 010°19'912.9
2017-Jun-18 15:47N 42°43' W 010°16'4012.9
2017-Jun-18 12:40N 43°23' W 010°07'  

Dump ship's entire track history